Terminal Aerodrome Forecast
Issued by NWS

Home | Current Version | Previous Version | Text Only | Print | Product List | Glossary On
Versions: 1 2 3 4 5 6 7 8 9 10 11 12
000
FTUS42 TJSJ 221100
TAFJSJ
TAF
TJSJ 221131Z 2212/2312 00000KT P6SM FEW025 SCT045 SCT070
     FM221300 08012KT P6SM FEW025 SCT035
     FM222300 09006KT P6SM FEW025=

USA.gov is the U.S. government's official web portal to all federal, state and local government web resources and services.